Impacts TAF Board INFO
FOR SITUATIONAL AWARENESS. NOT TO BE USED FOR FLIGHT PLANNING PURPOSES.
IDs:

KMEI - Meridian/Key Fld, MS, US

Issued at 1120 UTC 20 May 2018
Updated at 1214 UTC 20 May 2018
Potential Impact None Slight Moderate High
Time<<21/01Z 21/02Z 21/03Z 21/04Z 21/05Z 21/06Z 21/07Z 21/08Z 21/09Z 21/10Z 21/11Z 21/12Z 21/13Z>>
Type PRVL PRVL PRVL PRVL PRVL PRVL PRVL PRVL PRVL PRVL PRVL
VIS >6 >6 >6 >6 >6 >6 >6 >6 2 2 2
CIG 50 50 50 50 50 50 130 130 130 130 130
Cover BKN BKN BKN BKN BKN BKN BKN BKN BKN BKN BKN
FltCat VFR VFR VFR VFR VFR VFR VFR VFR IFR IFR IFR
WX VCTS VCTS VCSH VCSH VCSH VCSH -- -- BR BR BR
WDir 130 130 VRB VRB VRB VRB VRB VRB 100 100 100
WSpd 4 4 0 0 0 0 0 0 3 3 3
WGst -- -- -- -- -- -- -- -- -- -- --

Raw TAF
KMEI 201120Z 2012/2112 00000KT P6SM FEW050 SCT250
  FM201900 13004KT P6SM VCTS BKN050CB BKN250
  FM210300 00000KT P6SM VCSH BKN050 BKN250
  FM210700 00000KT P6SM BKN130
  FM210900 10003KT 2SM BR BKN130


METAR Board
Radar Display
Forecast Discussion

FOR SITUATIONAL AWARENESS. NOT TO BE USED FOR FLIGHT PLANNING PURPOSES.